createdAt,value
2018-04-12T00:02:14.232Z,7.90
2018-04-12T00:04:46.202Z,7.90
2018-04-12T00:07:15.862Z,7.80
2018-04-12T00:09:45.615Z,7.90
2018-04-12T00:12:15.598Z,7.80
2018-04-12T00:14:45.647Z,7.80
2018-04-12T00:17:15.356Z,7.80
2018-04-12T00:19:46.910Z,7.80
2018-04-12T00:22:18.260Z,7.80
2018-04-12T00:24:49.606Z,7.80
2018-04-12T00:27:19.314Z,7.80
2018-04-12T00:29:49.640Z,7.80
2018-04-12T00:32:21.191Z,7.70
2018-04-12T00:34:52.543Z,7.70
2018-04-12T00:37:22.458Z,7.70
2018-04-12T00:39:52.777Z,7.70
2018-04-12T00:42:24.741Z,7.70
2018-04-12T00:44:54.654Z,7.60
2018-04-12T00:47:24.577Z,7.60
2018-04-12T00:49:54.682Z,7.60
2018-04-12T00:52:24.601Z,7.60
2018-04-12T00:54:54.310Z,7.60
2018-04-12T00:57:24.021Z,7.60
2018-04-12T00:59:54.550Z,7.60
2018-04-12T01:02:24.259Z,7.50
2018-04-12T01:04:54.176Z,7.50
2018-04-12T01:07:23.884Z,7.50
2018-04-12T01:09:54.003Z,7.50
2018-04-12T01:12:25.309Z,7.50
2018-04-12T01:14:55.061Z,7.50
2018-04-12T01:17:25.043Z,7.50
2018-04-12T01:19:54.854Z,7.50
2018-04-12T01:22:24.719Z,7.50
2018-04-12T01:24:55.536Z,7.40
2018-04-12T01:27:25.451Z,7.40
2018-04-12T01:29:55.775Z,7.40
2018-04-12T01:32:26.918Z,7.40
2018-04-12T01:34:57.651Z,7.40
2018-04-12T01:37:27.364Z,7.40
2018-04-12T01:39:57.480Z,7.40
2018-04-12T01:42:28.212Z,7.40
2018-04-12T01:44:58.335Z,7.40
2018-04-12T01:47:29.633Z,7.30
2018-04-12T01:49:59.798Z,7.30
2018-04-12T01:52:31.261Z,7.30
2018-04-12T01:55:01.245Z,7.30
2018-04-12T01:57:30.974Z,7.30
2018-04-12T02:00:02.663Z,7.30
2018-04-12T02:02:33.621Z,7.30
2018-04-12T02:05:03.379Z,7.30
2018-04-12T02:07:34.524Z,7.30
2018-04-12T02:10:04.439Z,7.20
2018-04-12T02:12:34.147Z,7.20
2018-04-12T02:15:04.011Z,7.30
2018-04-12T02:17:34.035Z,7.20
2018-04-12T02:20:04.057Z,7.20
2018-04-12T02:22:34.420Z,7.20
2018-04-12T02:25:04.129Z,7.20
2018-04-12T02:27:33.843Z,7.20
2018-04-12T02:30:05.188Z,7.20
2018-04-12T02:32:35.100Z,7.20
2018-04-12T02:35:07.120Z,7.20
2018-04-12T02:37:36.976Z,7.20
2018-04-12T02:40:07.059Z,7.20
2018-04-12T02:42:36.806Z,7.20
2018-04-12T02:45:06.515Z,7.20
2018-04-12T02:47:36.776Z,7.20
2018-04-12T02:50:06.755Z,7.10
2018-04-12T02:52:37.077Z,7.10
2018-04-12T02:55:07.195Z,7.10
2018-04-12T02:57:36.909Z,7.10
2018-04-12T03:00:07.315Z,7.10
2018-04-12T03:02:37.348Z,7.10
2018-04-12T03:05:07.402Z,7.10
2018-04-12T03:07:37.177Z,7.10
2018-04-12T03:10:07.673Z,7.10
2018-04-12T03:12:37.418Z,7.10
2018-04-12T03:15:07.692Z,7.10
2018-04-12T03:17:37.449Z,7.10
2018-04-12T03:20:07.572Z,7.10
2018-04-12T03:22:37.554Z,7.10
2018-04-12T03:25:08.422Z,7.10
2018-04-12T03:27:38.131Z,7.10
2018-04-12T03:30:08.009Z,7.00
2018-04-12T03:32:37.962Z,7.00
2018-04-12T03:35:07.871Z,7.00
2018-04-12T03:37:39.328Z,7.00
2018-04-12T03:40:09.953Z,7.00
2018-04-12T03:42:41.516Z,7.00
2018-04-12T03:45:11.580Z,7.00
2018-04-12T03:47:41.540Z,7.00
2018-04-12T03:50:11.562Z,7.00
2018-04-12T03:52:41.370Z,7.00
2018-04-12T03:55:11.085Z,7.00
2018-04-12T03:57:41.819Z,6.90
2018-04-12T04:00:11.930Z,6.90
2018-04-12T04:02:42.253Z,6.90
2018-04-12T04:05:12.168Z,7.00
2018-04-12T04:07:42.291Z,6.90
2018-04-12T04:10:12.815Z,6.90
2018-04-12T04:12:44.583Z,6.90
2018-04-12T04:15:25.550Z,6.90
2018-04-12T04:21:10.229Z,6.90
2018-04-12T04:23:40.140Z,6.80
2018-04-12T04:26:10.260Z,6.80
2018-04-12T04:28:40.380Z,6.80
2018-04-12T04:31:10.614Z,6.80
2018-04-12T04:33:41.231Z,6.80
2018-04-12T04:36:10.941Z,6.80
2018-04-12T04:38:41.325Z,6.80
2018-04-12T04:41:12.000Z,6.80
2018-04-12T04:43:42.379Z,6.80
2018-04-12T04:46:12.851Z,6.80
2018-04-12T04:48:42.768Z,6.80
2018-04-12T04:51:14.114Z,6.70
2018-04-12T04:53:43.822Z,6.70
2018-04-12T04:56:13.593Z,6.70
2018-04-12T04:58:43.445Z,6.70
2018-04-12T05:01:13.322Z,6.70
2018-04-12T05:03:43.279Z,6.70
2018-04-12T05:06:13.397Z,6.70
2018-04-12T05:08:43.454Z,6.70
2018-04-12T05:11:13.428Z,6.70
2018-04-12T05:13:44.778Z,6.70
2018-04-12T05:16:17.970Z,6.70
2018-04-12T05:18:47.882Z,6.70
2018-04-12T05:21:17.751Z,6.70
2018-04-12T05:23:47.870Z,6.70
2018-04-12T05:26:17.621Z,6.60
2018-04-12T05:28:49.567Z,6.60
2018-04-12T05:31:19.296Z,6.60
2018-04-12T05:33:49.165Z,6.60
2018-04-12T05:36:19.142Z,6.60
2018-04-12T05:38:49.210Z,6.70
2018-04-12T05:41:18.952Z,6.60
2018-04-12T05:43:49.412Z,6.60
2018-04-12T05:46:19.228Z,6.60
2018-04-12T05:48:49.308Z,6.60
2018-04-12T05:51:19.223Z,6.60
2018-04-12T05:53:49.341Z,6.60
2018-04-12T05:56:19.255Z,6.60
2018-04-12T05:58:50.288Z,6.60
2018-04-12T06:01:20.868Z,6.60
2018-04-12T06:03:50.734Z,6.60
2018-04-12T06:06:20.527Z,6.60
2018-04-12T06:08:50.644Z,6.60
2018-04-12T06:11:20.789Z,6.60
2018-04-12T06:13:50.909Z,6.60
2018-04-12T06:16:20.989Z,6.60
2018-04-12T06:18:51.556Z,6.60
2018-04-12T06:21:21.295Z,6.60
2018-04-12T06:23:51.181Z,6.70
2018-04-12T06:26:21.300Z,6.70
2018-04-12T06:28:51.419Z,6.70
2018-04-12T06:31:21.334Z,6.70
2018-04-12T06:33:51.045Z,6.70
2018-04-12T06:36:20.956Z,6.70
2018-04-12T06:38:50.871Z,6.70
2018-04-12T06:41:20.580Z,6.70
2018-04-12T06:43:50.494Z,6.70
2018-04-12T06:46:20.745Z,6.70
2018-04-12T06:48:50.894Z,6.70
2018-04-12T06:51:21.055Z,6.70
2018-04-12T06:53:50.763Z,6.80
2018-04-12T06:56:20.884Z,6.80
2018-04-12T06:58:51.821Z,6.80
2018-04-12T07:01:21.943Z,6.80
2018-04-12T07:03:51.814Z,6.90
2018-04-12T07:06:21.979Z,6.90
2018-04-12T07:08:52.233Z,6.90
2018-04-12T07:11:22.212Z,6.90
2018-04-12T07:13:52.125Z,7.00
2018-04-12T07:16:22.003Z,7.00
2018-04-12T07:18:52.158Z,7.00
2018-04-12T07:21:22.211Z,7.10
2018-04-12T07:23:52.219Z,7.10
2018-04-12T07:26:22.269Z,7.10
2018-04-12T07:28:52.019Z,7.10
2018-04-12T07:31:21.731Z,7.20
2018-04-12T07:33:51.438Z,7.20
2018-04-12T07:36:21.557Z,7.20
2018-04-12T07:38:51.677Z,7.20
2018-04-12T07:41:21.591Z,7.20
2018-04-12T07:43:51.704Z,7.20
2018-04-12T07:46:23.672Z,7.20
2018-04-12T07:48:53.713Z,7.20
2018-04-12T07:51:25.349Z,7.30
2018-04-12T07:53:56.287Z,7.30
2018-04-12T07:56:26.205Z,7.30
2018-04-12T07:58:56.734Z,7.30
2018-04-12T08:01:27.458Z,7.40
2018-04-12T08:03:57.374Z,7.30
2018-04-12T08:06:28.516Z,7.40
2018-04-12T08:08:58.226Z,7.40
2018-04-12T08:11:27.938Z,7.50
2018-04-12T08:13:58.260Z,7.50
2018-04-12T08:16:28.997Z,7.60
2018-04-12T08:18:58.906Z,7.60
2018-04-12T08:21:28.617Z,7.70
2018-04-12T08:23:58.328Z,7.70
2018-04-12T08:26:28.653Z,7.80
2018-04-12T08:29:00.600Z,7.80
2018-04-12T08:31:31.620Z,7.90
2018-04-12T08:34:03.134Z,7.90
2018-04-12T08:36:32.812Z,7.90
2018-04-12T08:39:02.523Z,8.00
2018-04-12T08:41:34.492Z,8.10
2018-04-12T08:44:08.980Z,8.10
2018-04-12T08:46:39.673Z,8.10
2018-04-12T08:49:11.697Z,8.20
2018-04-12T08:51:41.723Z,8.20
2018-04-12T08:54:11.599Z,8.20
2018-04-12T08:56:42.514Z,8.30
2018-04-12T08:59:13.318Z,8.30
2018-04-12T09:01:43.229Z,8.40
2018-04-12T09:04:14.568Z,8.50
2018-04-12T09:06:44.870Z,8.50
2018-04-12T09:09:14.813Z,8.50
2018-04-12T09:11:44.925Z,8.50
2018-04-12T09:14:15.044Z,8.60
2018-04-12T09:16:50.440Z,8.60
2018-04-12T09:19:20.198Z,8.60
2018-04-12T09:21:50.111Z,8.70
2018-04-12T09:24:22.074Z,8.80
2018-04-12T09:26:52.821Z,9.00
2018-04-12T09:29:22.722Z,9.00
2018-04-12T09:31:54.072Z,9.70
2018-04-12T09:34:24.702Z,9.70
2018-04-12T09:36:56.012Z,9.40
2018-04-12T09:39:25.812Z,9.40
2018-04-12T09:41:57.108Z,9.40
2018-04-12T09:44:28.459Z,9.30
2018-04-12T09:46:58.329Z,9.30
2018-04-12T09:49:28.947Z,9.30
2018-04-12T09:51:58.988Z,9.40
2018-04-12T09:54:28.930Z,9.40
2018-04-12T09:56:58.844Z,9.40
2018-04-12T09:59:28.761Z,9.40
2018-04-12T10:02:01.906Z,9.40
2018-04-12T10:04:34.732Z,9.50
2018-04-12T10:07:05.978Z,9.50
2018-04-12T10:09:35.947Z,9.70
2018-04-12T10:12:06.010Z,9.80
2018-04-12T10:14:35.924Z,9.90
2018-04-12T10:17:06.044Z,9.90
2018-04-12T10:19:36.367Z,9.90
2018-04-12T10:22:06.693Z,9.90
2018-04-12T10:24:36.613Z,9.90
2018-04-12T10:27:07.300Z,10.00
2018-04-12T10:29:38.550Z,10.20
2018-04-12T10:32:09.832Z,10.50
2018-04-12T10:34:39.640Z,10.40
2018-04-12T10:37:09.797Z,10.50
2018-04-12T10:39:39.735Z,10.60
2018-04-12T10:42:09.898Z,10.70
2018-04-12T10:44:39.975Z,10.70
2018-04-12T10:47:10.344Z,10.90
2018-04-12T10:49:40.367Z,10.90
2018-04-12T10:52:11.374Z,11.10
2018-04-12T10:54:41.317Z,11.10
2018-04-12T10:57:11.227Z,11.30
2018-04-12T10:59:41.243Z,11.30
2018-04-12T11:02:11.157Z,11.30
2018-04-12T11:04:41.105Z,11.20
2018-04-12T11:07:10.983Z,11.00
2018-04-12T11:09:40.886Z,11.00
2018-04-12T11:12:10.815Z,11.00
2018-04-12T11:14:40.890Z,11.00
2018-04-12T11:17:11.507Z,11.00
2018-04-12T11:19:41.625Z,11.10
2018-04-12T11:22:11.699Z,11.10
2018-04-12T11:24:41.818Z,11.10
2018-04-12T11:27:11.754Z,11.10
2018-04-12T11:29:42.056Z,11.10
2018-04-12T11:32:12.790Z,11.10
2018-04-12T11:34:42.499Z,11.10
2018-04-12T11:37:13.848Z,11.20
2018-04-12T11:39:43.556Z,11.20
2018-04-12T11:42:13.471Z,11.20
2018-04-12T11:44:45.027Z,11.20
2018-04-12T11:47:15.756Z,11.20
2018-04-12T11:49:45.884Z,11.30
2018-04-12T11:52:16.000Z,11.70
2018-04-12T11:54:45.908Z,11.70
2018-04-12T11:57:17.667Z,11.40
2018-04-12T11:59:48.401Z,11.40
2018-04-12T12:02:18.540Z,11.40
2018-04-12T12:04:48.544Z,11.40
2018-04-12T12:07:18.554Z,11.50
2018-04-12T12:09:48.469Z,11.70
2018-04-12T12:12:18.382Z,11.80
2018-04-12T12:14:48.296Z,11.90
2018-04-12T12:17:19.029Z,12.20
2018-04-12T12:19:49.575Z,12.30
2018-04-12T12:22:19.678Z,12.40
2018-04-12T12:24:49.591Z,12.60
2018-04-12T12:27:21.145Z,12.80
2018-04-12T12:29:51.097Z,12.80
2018-04-12T12:32:21.177Z,12.90
2018-04-12T12:34:51.095Z,13.00
2018-04-12T12:37:21.007Z,13.20
2018-04-12T12:39:50.926Z,13.20
2018-04-12T12:42:21.449Z,13.00
2018-04-12T12:44:52.804Z,12.70
2018-04-12T12:47:23.942Z,12.70
2018-04-12T12:49:54.071Z,12.70
2018-04-12T12:52:23.979Z,12.60
2018-04-12T12:54:53.889Z,12.60
2018-04-12T12:57:23.655Z,12.60
2018-04-12T12:59:53.755Z,12.50
2018-04-12T13:02:23.872Z,12.50
2018-04-12T13:04:53.752Z,12.50
2018-04-12T13:07:24.284Z,12.40
2018-04-12T13:09:54.194Z,12.40
2018-04-12T13:12:24.223Z,12.40
2018-04-12T13:14:54.847Z,12.30
2018-04-12T13:17:24.757Z,12.30
2018-04-12T13:19:54.578Z,12.30
2018-04-12T13:22:27.820Z,12.30
2018-04-12T13:24:57.905Z,12.30
2018-04-12T13:27:27.971Z,12.40
2018-04-12T13:29:58.321Z,12.40
2018-04-12T13:32:29.260Z,12.40
2018-04-12T13:34:59.793Z,12.30
2018-04-12T13:37:29.907Z,12.40
2018-04-12T13:40:00.026Z,12.40
2018-04-12T13:42:32.023Z,12.40
2018-04-12T13:45:02.075Z,12.40
2018-04-12T13:47:32.023Z,12.40
2018-04-12T13:50:03.577Z,12.40
2018-04-12T13:52:38.608Z,12.40
2018-04-12T13:55:08.526Z,12.40
2018-04-12T13:57:38.247Z,12.40
2018-04-12T14:00:08.148Z,12.40
2018-04-12T14:02:39.084Z,12.40
2018-04-12T14:05:09.092Z,12.40
2018-04-12T14:07:38.913Z,12.40
2018-04-12T14:10:09.855Z,12.40
2018-04-12T14:12:39.971Z,12.30
2018-04-12T14:15:11.524Z,12.30
2018-04-12T14:17:42.462Z,12.30
2018-04-12T14:20:12.788Z,12.30
2018-04-12T14:22:42.904Z,12.30
2018-04-12T14:25:12.822Z,12.30
2018-04-12T14:27:42.742Z,12.20
2018-04-12T14:30:12.645Z,12.20
2018-04-12T14:32:43.175Z,12.20
2018-04-12T14:35:15.043Z,12.20
2018-04-12T14:37:45.677Z,12.20
2018-04-12T14:40:15.786Z,12.20
2018-04-12T14:42:45.904Z,12.30
2018-04-12T14:45:15.820Z,12.30
2018-04-12T14:47:46.969Z,12.20
2018-04-12T14:50:17.699Z,12.10
2018-04-12T14:52:47.611Z,12.20
2018-04-12T14:55:17.318Z,12.40
2018-04-12T14:57:47.029Z,12.50
2018-04-12T15:00:16.947Z,12.50
2018-04-12T15:02:48.498Z,12.60
2018-04-12T15:05:19.233Z,12.60
2018-04-12T15:07:49.455Z,12.60
2018-04-12T15:10:20.081Z,12.60
2018-04-12T15:12:50.376Z,12.50
2018-04-12T15:15:20.527Z,12.60
2018-04-12T15:17:50.645Z,12.60
2018-04-12T15:20:20.558Z,12.60
2018-04-12T15:22:50.676Z,12.60
2018-04-12T15:25:21.208Z,12.60
2018-04-12T15:27:52.551Z,12.50
2018-04-12T15:30:22.467Z,12.50
2018-04-12T15:32:52.338Z,12.50
2018-04-12T15:35:22.297Z,12.50
2018-04-12T15:37:52.620Z,12.50
2018-04-12T15:40:24.313Z,12.40
2018-04-12T15:42:54.292Z,12.40
2018-04-12T15:45:25.913Z,12.40
2018-04-12T15:47:55.759Z,12.40
2018-04-12T15:50:25.636Z,12.50
2018-04-12T15:52:55.588Z,12.50
2018-04-12T15:55:25.727Z,12.40
2018-04-12T15:57:55.916Z,12.50
2018-04-12T16:00:26.588Z,12.50
2018-04-12T16:02:57.301Z,12.50
2018-04-12T16:05:27.412Z,12.50
2018-04-12T16:07:57.333Z,12.50
2018-04-12T16:10:28.060Z,12.50
2018-04-12T16:12:57.973Z,12.50
2018-04-12T16:15:27.895Z,12.30
2018-04-12T16:17:58.411Z,12.30
2018-04-12T16:20:29.975Z,11.80
2018-04-12T16:22:59.681Z,11.80
2018-04-12T16:25:29.593Z,11.90
2018-04-12T16:27:59.507Z,12.00
2018-04-12T16:30:29.429Z,12.00
2018-04-12T16:32:59.508Z,12.10
2018-04-12T16:35:29.456Z,12.10
2018-04-12T16:37:59.369Z,12.20
2018-04-12T16:40:29.088Z,12.10
2018-04-12T16:42:59.814Z,12.10
2018-04-12T16:45:29.906Z,12.10
2018-04-12T16:48:00.015Z,12.10
2018-04-12T16:50:29.966Z,12.10
2018-04-12T16:52:59.887Z,12.10
2018-04-12T16:55:29.998Z,12.10
2018-04-12T16:58:01.729Z,12.00
2018-04-12T17:00:31.673Z,12.00
2018-04-12T17:03:02.405Z,12.10
2018-04-12T17:05:32.320Z,12.00
2018-04-12T17:08:03.055Z,12.10
2018-04-12T17:10:32.763Z,12.00
2018-04-12T17:13:02.840Z,12.00
2018-04-12T17:15:32.796Z,12.00
2018-04-12T17:18:02.710Z,12.00
2018-04-12T17:20:32.625Z,12.00
2018-04-12T17:23:02.539Z,12.00
2018-04-12T17:25:34.092Z,11.90
2018-04-12T17:28:04.141Z,11.90
2018-04-12T17:30:34.945Z,11.90
2018-04-12T17:33:05.138Z,11.90
2018-04-12T17:35:35.801Z,11.90
2018-04-12T17:38:05.916Z,11.90
2018-04-12T17:40:36.005Z,11.90
2018-04-12T17:43:06.325Z,11.80
2018-04-12T17:45:36.480Z,11.80
2018-04-12T17:48:06.584Z,11.80
2018-04-12T17:50:36.512Z,11.80
2018-04-12T17:53:06.632Z,11.80
2018-04-12T17:55:37.576Z,11.80
2018-04-12T17:58:07.628Z,11.70
2018-04-12T18:00:37.603Z,11.70
2018-04-12T18:03:07.722Z,11.70
2018-04-12T18:05:37.636Z,11.70
2018-04-12T18:08:07.548Z,11.70
2018-04-12T18:10:37.636Z,11.70
2018-04-12T18:13:07.584Z,11.70
2018-04-12T18:15:37.705Z,11.60
2018-04-12T18:18:07.618Z,11.60
2018-04-12T18:20:38.532Z,11.60
2018-04-12T18:23:08.985Z,11.60
2018-04-12T18:25:39.817Z,11.50
2018-04-12T18:28:11.160Z,11.50
2018-04-12T18:30:42.524Z,11.50
2018-04-12T18:33:12.537Z,11.50
2018-04-12T18:35:42.958Z,11.50
2018-04-12T18:38:12.845Z,11.50
2018-04-12T18:40:42.787Z,11.50
2018-04-12T18:43:12.905Z,11.40
2018-04-12T18:45:42.954Z,11.40
2018-04-12T18:48:13.554Z,11.40
2018-04-12T18:50:43.672Z,11.40
2018-04-12T18:53:14.002Z,11.40
2018-04-12T18:55:44.112Z,11.40
2018-04-12T18:58:14.397Z,11.40
2018-04-12T19:00:44.351Z,11.30
2018-04-12T19:03:14.254Z,11.30
2018-04-12T19:05:44.179Z,11.30
2018-04-12T19:08:14.093Z,11.30
2018-04-12T19:10:44.184Z,11.20
2018-04-12T19:13:14.777Z,11.20
2018-04-12T19:15:44.991Z,11.20
2018-04-12T19:18:14.774Z,11.20
2018-04-12T19:20:45.486Z,11.20
2018-04-12T19:23:15.423Z,11.20
2018-04-12T19:25:45.344Z,11.20
2018-04-12T19:28:15.669Z,11.20
2018-04-12T19:30:45.783Z,11.10
2018-04-12T19:33:16.103Z,11.10
2018-04-12T19:35:46.377Z,11.10
2018-04-12T19:38:16.751Z,11.10
2018-04-12T19:40:47.046Z,11.10
2018-04-12T19:43:16.990Z,11.10
2018-04-12T19:45:47.518Z,11.00
2018-04-12T19:48:17.886Z,11.00
2018-04-12T19:50:47.723Z,11.00
2018-04-12T19:53:17.794Z,11.00
2018-04-12T19:55:47.911Z,11.00
2018-04-12T19:58:17.950Z,11.00
2018-04-12T20:00:47.944Z,11.00
2018-04-12T20:03:17.853Z,11.00
2018-04-12T20:05:47.954Z,10.90
2018-04-12T20:08:17.893Z,10.90
2018-04-12T20:10:47.759Z,10.90
2018-04-12T20:13:17.888Z,10.90
2018-04-12T20:15:47.796Z,10.90
2018-04-12T20:18:17.960Z,10.80
2018-04-12T20:20:48.070Z,10.80
2018-04-12T20:23:19.669Z,10.80
2018-04-12T20:25:49.551Z,10.80
2018-04-12T20:28:19.704Z,10.80
2018-04-12T20:30:49.572Z,10.80
2018-04-12T20:33:21.133Z,10.70
2018-04-12T20:35:50.924Z,10.70
2018-04-12T20:38:20.748Z,10.70
2018-04-12T20:40:50.678Z,10.70
2018-04-12T20:43:20.575Z,10.70
2018-04-12T20:45:50.628Z,10.70
2018-04-12T20:48:20.537Z,10.70
2018-04-12T20:50:50.522Z,10.60
2018-04-12T20:53:20.647Z,10.60
2018-04-12T20:55:50.932Z,10.60
2018-04-12T20:58:20.698Z,10.60
2018-04-12T21:00:50.754Z,10.60
2018-04-12T21:03:21.333Z,10.60
2018-04-12T21:05:51.237Z,10.50
2018-04-12T21:08:21.151Z,10.50
2018-04-12T21:10:51.484Z,10.50
2018-04-12T21:13:21.188Z,10.50
2018-04-12T21:15:51.098Z,10.50
2018-04-12T21:18:20.809Z,10.50
2018-04-12T21:20:50.622Z,10.40
2018-04-12T21:23:20.432Z,10.40
2018-04-12T21:25:50.431Z,10.40
2018-04-12T21:28:20.643Z,10.40
2018-04-12T21:30:50.383Z,10.40
2018-04-12T21:33:21.283Z,10.40
2018-04-12T21:35:51.030Z,10.30
2018-04-12T21:38:21.560Z,10.20
2018-04-12T21:40:51.472Z,10.20
2018-04-12T21:43:21.394Z,10.00
2018-04-12T21:45:51.301Z,10.00
2018-04-12T21:48:21.254Z,10.10
2018-04-12T21:50:51.130Z,10.10
2018-04-12T21:53:22.681Z,10.10
2018-04-12T21:55:52.596Z,10.10
2018-04-12T21:58:23.338Z,10.20
2018-04-12T22:00:53.246Z,10.10
2018-04-12T22:03:23.625Z,10.10
2018-04-12T22:05:54.097Z,10.10
2018-04-12T22:08:24.595Z,10.10
2018-04-12T22:10:54.928Z,10.10
2018-04-12T22:13:25.476Z,10.10
2018-04-12T22:15:56.075Z,10.00
2018-04-12T22:18:26.515Z,10.00
2018-04-12T22:20:56.866Z,10.00
2018-04-12T22:23:27.227Z,10.00
2018-04-12T22:25:57.564Z,10.00
2018-04-12T22:28:28.006Z,10.00
2018-04-12T22:30:58.542Z,10.00
2018-04-12T22:33:29.070Z,10.00
2018-04-12T22:35:59.499Z,10.00
2018-04-12T22:38:29.877Z,9.90
2018-04-12T22:42:03.275Z,10.00
2018-04-12T22:44:33.659Z,9.90
2018-04-12T22:47:04.266Z,9.90
2018-04-12T22:49:34.683Z,9.90
2018-04-12T22:52:05.840Z,9.90
2018-04-12T22:54:36.370Z,9.90
2018-04-12T22:57:06.755Z,9.90
2018-04-12T22:59:37.107Z,9.80
2018-04-12T23:02:07.554Z,9.90
2018-04-12T23:04:37.842Z,9.80
2018-04-12T23:07:08.207Z,9.90
2018-04-12T23:09:38.600Z,9.80
2018-04-12T23:12:08.927Z,9.80
2018-04-12T23:14:39.421Z,9.80
2018-04-12T23:17:09.778Z,9.80
2018-04-12T23:19:40.224Z,9.80
2018-04-12T23:22:10.561Z,9.80
2018-04-12T23:24:41.046Z,9.80
2018-04-12T23:27:11.373Z,9.80
2018-04-12T23:29:41.599Z,9.80
2018-04-12T23:32:12.066Z,9.80
2018-04-12T23:34:42.565Z,9.80
2018-04-12T23:37:13.367Z,9.70
2018-04-12T23:39:43.771Z,9.70
2018-04-12T23:42:13.987Z,9.70
2018-04-12T23:44:45.782Z,9.70
2018-04-12T23:47:16.247Z,9.70
2018-04-12T23:49:46.778Z,9.70
2018-04-12T23:52:18.144Z,9.70
2018-04-12T23:54:49.915Z,9.70
2018-04-12T23:57:20.258Z,9.60
2018-04-12T23:59:50.814Z,9.70
